Latest Weather Observations for Temora

IDN60801

Issued at 4:35 am EDT Tuesday 25 November 2014 (issued every 30 minutes, with the page automatically refreshed every 10 minutes)

About weather observations | Map of weather stations | Latest weather observations for NSW | Other Formats
Station Details ID: 073151 Name: TEMORA AIRPORT Lat: -34.43 Lon: 147.51 Height: 280.5 m
Data from the previous 72 hours. | See also: Recent months at Temora
Date/Time
EDT
Temp
°C
App
Temp
°C
Dew
Point
Rel
Hum
%
Delta-T
°C
Wind Press
QNH
hPa
Press
MSL
hPa
Rain
since 9 am
mm
Dir
 
Spd
km/h
Gust
km/h
Spd
kts
Gust
kts
25/04:30am 13.7 10.0 8.1 69 2.8 SW 17 30 9 16 1014.9 1013.9 2.0
25/04:00am 14.6 10.5 8.5 67 3.1 SW 20 28 11 15 1014.5 1013.6 2.0
25/03:30am 15.2 10.2 9.6 69 2.9 SSW 26 43 14 23 1014.0 1013.0 2.0
25/03:00am 15.8 11.5 12.2 79 2.0 SW 26 35 14 19 1013.4 1012.4 2.0
25/02:41am 16.3 11.4 12.7 79 2.0 SW 30 48 16 26 1013.3 1012.3 2.0
25/02:30am 17.1 12.7 14.0 82 1.8 SW 30 46 16 25 1013.0 1012.0 2.0
25/02:00am 18.3 15.9 15.4 83 1.7 WSW 22 32 12 17 1012.5 1011.5 2.0
25/01:30am 18.9 17.3 16.1 84 1.7 WSW 19 30 10 16 1012.3 1011.3 2.0
25/01:00am 19.0 17.5 16.2 84 1.7 WSW 19 30 10 16 1012.0 1011.0 2.0
25/12:30am 19.0 18.7 16.4 85 1.6 WSW 13 19 7 10 1012.0 1011.0 2.0
25/12:00am 19.0 19.0 16.2 84 1.7 SW 11 15 6 8 1011.9 1010.9 2.0
 
Date/Time
EDT
Temp
°C
App
Temp
°C
Dew
Point
Rel
Hum
%
Delta-T
°C
Wind Press
QNH
hPa
Press
MSL
hPa
Rain
since 9 am
mm
Dir
 
Spd
km/h
Gust
km/h
Spd
kts
Gust
kts
24/11:30pm 19.1 19.0 16.1 83 1.8 WSW 11 15 6 8 1012.0 1011.0 2.0
24/11:00pm 19.1 19.2 16.5 85 1.6 SW 11 15 6 8 1012.4 1011.4 2.0
24/10:30pm 19.2 21.4 16.4 84 1.7 CALM 0 0 0 0 1011.4 1010.3 2.0
24/10:00pm 19.2 19.6 16.4 84 1.7 SW 9 15 5 8 1011.5 1010.5 2.0
24/09:30pm 19.4 17.3 16.1 81 2.0 WSW 22 28 12 15 1012.3 1011.3 2.0
24/09:00pm 20.5 15.0 16.7 79 2.3 WSW 41 63 22 34 1012.8 1011.8 2.0
24/08:53pm 22.0 19.3 17.6 76 2.8 W 28 50 15 27 1012.8 1011.8 2.0
24/08:51pm 21.8 20.7 18.6 82 2.0 W 22 35 12 19 1012.2 1011.2 2.0
24/08:30pm 21.4 22.5 18.0 81 2.1 N 9 11 5 6 1010.0 1009.0 2.0
24/08:00pm 22.3 23.8 18.1 77 2.7 N 7 9 4 5 1009.4 1008.4 2.0
24/07:30pm 22.9 24.6 18.4 76 2.9 N 7 9 4 5 1009.1 1008.1 2.0
24/07:00pm 23.4 24.7 18.5 74 3.1 NNE 9 11 5 6 1008.7 1007.7 2.0
24/06:30pm 23.5 24.1 18.6 74 3.1 NNE 13 15 7 8 1008.5 1007.5 2.0
24/06:00pm 23.5 23.3 18.6 74 3.1 NE 17 24 9 13 1007.9 1006.8 2.0
24/05:30pm 23.6 23.9 18.7 74 3.1 ENE 15 22 8 12 1007.9 1006.8 2.0
24/05:00pm 23.3 22.8 18.6 75 3.0 ENE 19 24 10 13 1008.3 1007.2 2.0
24/04:30pm 22.8 23.1 18.8 78 2.6 ENE 15 20 8 11 1009.4 1008.4 2.0
24/04:00pm 21.7 21.8 19.1 85 1.7 ENE 17 26 9 14 1010.0 1009.0 2.0
24/03:30pm 21.5 22.3 19.1 86 1.5 E 13 20 7 11 1011.8 1010.8 2.0
24/03:00pm 21.4 21.2 18.6 84 1.8 ESE 17 20 9 11 1011.8 1010.8 2.0
24/02:30pm 21.3 21.7 18.9 86 1.5 SE 15 20 8 11 1012.4 1011.4 2.0
24/02:00pm 21.6 23.0 19.5 88 1.4 SSE 11 17 6 9 1012.8 1011.8 2.0
24/01:30pm 21.6 22.3 19.7 89 1.2 SSE 15 22 8 12 1012.8 1011.8 2.0
24/01:00pm 21.5 22.2 18.9 85 1.7 SE 13 19 7 10 1013.1 1012.1 1.4
24/12:30pm 22.0 22.2 18.6 81 2.2 S 15 17 8 9 1013.8 1012.8 1.0
24/12:00pm 23.4 24.5 18.1 72 3.4 S 9 11 5 6 1014.0 1013.0 0.2
24/11:30am 25.2 22.9 14.6 51 6.4 SSE 20 28 11 15 1013.0 1012.0 0.0
24/11:00am 26.3 24.8 14.1 47 7.3 SSE 15 20 8 11 1012.7 1011.7 0.0
24/10:30am 26.0 24.8 14.1 47 7.1 SE 13 17 7 9 1013.0 1012.0 0.0
24/10:00am 26.0 25.4 14.5 49 7.0 S 11 15 6 8 1013.5 1012.5 0.0
24/09:30am 25.8 24.6 14.0 48 7.1 S 13 19 7 10 1013.5 1012.5 0.0
24/09:00am 25.5 23.2 14.0 49 6.9 S 19 22 10 12 1013.6 1012.6 0.0
24/08:30am 25.2 22.7 13.4 48 7.0 SSE 19 24 10 13 1014.0 1013.0 0.0
24/08:00am 24.7 22.1 13.3 49 6.7 S 19 30 10 16 1014.3 1013.3 0.0
24/07:30am 24.9 21.7 13.1 48 6.9 S 22 30 12 16 1013.9 1012.9 0.0
24/07:00am 24.8 22.4 12.7 47 7.1 S 17 20 9 11 1015.0 1014.0 0.0
24/06:30am 25.5 23.3 12.0 43 7.8 SSE 15 26 8 14 1014.3 1013.3 0.0
24/06:00am 24.9 22.2 11.8 44 7.5 S 17 20 9 11 1014.1 1013.1 0.0
24/05:30am 24.6 22.3 11.9 45 7.3 S 15 19 8 10 1014.4 1013.4 0.0
24/05:00am 25.0 23.2 12.2 44 7.4 S 13 15 7 8 1014.2 1013.2 0.0
24/04:30am 24.5 24.1 13.1 49 6.7 SSE 7 15 4 8 1013.7 1012.7 0.0
24/04:00am 24.3 22.7 12.9 49 6.7 S 13 19 7 10 1013.3 1012.3 0.0
24/03:30am 25.1 23.1 12.7 46 7.3 ESE 15 20 8 11 1012.6 1011.6 0.0
24/03:00am 24.7 24.0 13.3 49 6.7 ESE 9 15 5 8 1013.4 1012.4 0.0
24/02:30am 26.2 24.3 11.9 41 8.3 ESE 13 17 7 9 1013.0 1012.0 0.0
24/02:00am 25.5 25.8 14.9 52 6.4 E 7 11 4 6 1013.3 1012.3 0.0
24/01:30am 25.8 26.0 14.3 49 6.9 ENE 6 9 3 5 1014.4 1013.4 0.0
24/01:00am 28.1 25.6 8.4 29 10.9 WSW 11 15 6 8 1014.6 1013.7 0.0
24/12:30am 27.9 25.1 8.7 30 10.6 SSW 13 19 7 10 1013.5 1012.5 0.0
24/12:00am 28.3 24.5 9.1 30 10.7 S 19 22 10 12 1012.7 1011.7 0.0
 
Date/Time
EDT
Temp
°C
App
Temp
°C
Dew
Point
Rel
Hum
%
Delta-T
°C
Wind Press
QNH
hPa
Press
MSL
hPa
Rain
since 9 am
mm
Dir
 
Spd
km/h
Gust
km/h
Spd
kts
Gust
kts
23/11:30pm 28.6 24.7 8.8 29 11.0 SSW 19 30 10 16 1012.3 1011.3 0.0
23/11:00pm 29.1 22.4 9.8 30 11.0 S 35 44 19 24 1012.2 1011.2 0.0
23/10:59pm 29.1 22.3 9.3 29 11.2 S 35 43 19 23 1012.3 1011.3 0.0
23/10:30pm 29.9 25.0 9.9 29 11.4 SSW 26 33 14 18 1014.4 1013.4 0.0
23/10:00pm 30.4 26.9 10.9 30 11.3 SSW 20 33 11 18 1014.2 1013.2 0.0
23/09:30pm 31.2 26.2 11.1 29 11.8 W 28 39 15 21 1014.9 1013.9 0.0
23/09:00pm 31.9 27.2 10.6 27 12.4 SW 26 43 14 23 1013.0 1012.0 0.0
23/08:30pm 32.4 28.8 10.4 26 12.8 SSW 20 32 11 17 1011.4 1010.3 0.0
23/08:00pm 33.1 27.4 9.8 24 13.5 SSW 30 39 16 21 1010.5 1009.5 0.0
23/07:30pm 35.0 30.2 8.7 20 15.1 SW 24 41 13 22 1010.4 1009.4 0.0
23/07:00pm 36.0 31.2 8.7 19 15.7 WSW 24 33 13 18 1009.5 1008.5 0.0
23/06:30pm 36.9 31.3 8.7 18 16.3 WSW 28 35 15 19 1009.3 1008.3 0.0
23/06:00pm 36.8 30.2 7.8 17 16.6 W 32 46 17 25 1009.3 1008.3 0.0
23/05:30pm 37.7 29.9 6.6 15 17.5 W 37 50 20 27 1009.5 1008.5 0.0
23/05:00pm 39.6 32.4 6.1 13 18.9 W 33 56 18 30 1009.2 1008.2 0.0
23/04:31pm 39.0 31.9 5.6 13 18.6 WSW 32 50 17 27 1008.9 1007.9 0.0
23/04:30pm 39.2 31.9 4.6 12 19.0 WSW 32 46 17 25 1008.9 1007.9 0.0
23/04:00pm 39.3 31.8 4.7 12 19.1 WSW 33 46 18 25 1009.0 1008.0 0.0
23/03:34pm 40.5 33.5 4.3 11 19.9 WSW 30 50 16 27 1008.8 1007.8 0.0
23/03:30pm 40.6 33.9 5.7 12 19.6 WSW 30 46 16 25 1008.9 1007.9 0.0
23/03:00pm 40.8 33.5 7.0 13 19.4 W 35 46 19 25 1009.1 1008.1 0.0
23/02:55pm 41.1 33.2 6.0 12 19.9 W 37 44 20 24 1009.0 1008.0 0.0
23/02:47pm 41.4 34.9 6.3 12 20.0 WSW 30 48 16 26 1009.1 1008.1 0.0
23/02:30pm 41.9 35.5 5.4 11 20.6 WSW 28 33 15 18 1009.0 1008.0 0.0
23/02:00pm 41.8 34.1 5.3 11 20.6 W 35 48 19 26 1009.1 1008.1 0.0
23/01:30pm 41.4 34.0 5.0 11 20.3 NW 33 44 18 24 1009.1 1008.1 0.0
23/01:23pm 41.6 33.1 5.2 11 20.4 NW 39 44 21 24 1009.2 1008.2 0.0
23/01:20pm 41.4 34.3 6.3 12 20.0 W 33 52 18 28 1009.3 1008.3 0.0
23/01:00pm 41.2 33.7 6.1 12 19.9 WNW 35 48 19 26 1009.5 1008.5 0.0
23/12:47pm 41.6 34.4 5.2 11 20.4 NW 32 50 17 27 1009.6 1008.6 0.0
23/12:35pm 40.5 32.9 5.6 12 19.6 NW 35 43 19 23 1009.7 1008.7 0.0
23/12:30pm 40.6 31.2 4.4 11 20.0 W 43 52 23 28 1009.6 1008.6 0.0
23/12:00pm 40.7 32.8 4.5 11 20.0 NNW 35 48 19 26 1010.1 1009.1 0.0
23/11:30am 39.0 31.1 4.4 12 18.9 NW 35 57 19 31 1010.4 1009.4 0.0
23/11:25am 39.3 32.8 4.7 12 19.1 NNW 28 57 15 31 1010.4 1009.4 0.0
23/11:00am 37.7 31.4 7.6 16 17.2 NNW 30 41 16 22 1010.8 1009.8 0.0
23/10:30am 36.2 29.3 6.4 16 16.6 NNW 32 37 17 20 1010.7 1009.7 0.0
23/10:00am 34.6 29.9 7.6 19 15.2 N 22 35 12 19 1010.6 1009.6 0.0
23/09:30am 33.4 29.4 8.1 21 14.3 N 19 24 10 13 1010.6 1009.6 0.0
23/09:00am 30.7 25.9 7.2 23 12.9 NE 22 26 12 14 1010.6 1009.6 0.0
23/08:30am 29.2 24.8 6.6 24 12.2 ENE 19 26 10 14 1010.3 1009.3 0.0
23/08:00am 27.4 24.7 7.3 28 10.9 ENE 11 19 6 10 1010.3 1009.3 0.0
23/07:30am 24.1 23.3 9.7 40 8.0 E 4 7 2 4 1010.4 1009.4 0.0
23/07:00am 19.5 19.8 10.8 57 4.8 CALM 0 0 0 0 1010.4 1009.4 0.0
23/06:30am 16.9 16.3 10.5 66 3.5 S 4 7 2 4 1010.2 1009.2 0.0
23/06:00am 16.5 15.6 9.2 62 3.8 SE 4 7 2 4 1010.1 1009.1 0.0
23/05:30am 19.2 17.5 7.6 47 6.0 SSE 6 7 3 4 1009.9 1008.9 0.0
23/05:00am 20.5 18.8 8.2 45 6.5 E 7 9 4 5 1009.6 1008.6 0.0
23/04:30am 21.0 18.8 8.0 43 6.9 ENE 9 11 5 6 1009.7 1008.7 0.0
23/04:00am 22.4 19.4 7.8 39 7.7 ENE 13 15 7 8 1009.8 1008.8 0.0
23/03:30am 21.7 20.3 8.9 44 6.9 SW 6 11 3 6 1010.9 1009.9 0.0
23/03:00am 23.0 19.3 7.9 38 8.0 S 17 20 9 11 1011.6 1010.6 0.0
23/02:30am 23.5 21.5 7.2 35 8.6 E 7 13 4 7 1011.4 1010.3 0.0
23/02:00am 23.5 19.3 7.6 36 8.4 N 19 24 10 13 1012.4 1011.4 0.0
23/01:30am 23.8 21.4 7.0 34 8.8 SW 9 15 5 8 1012.4 1011.4 0.0
23/01:00am 25.7 21.9 5.8 28 10.4 SSE 15 19 8 10 1011.3 1010.2 0.0
23/12:30am 24.0 20.7 6.3 32 9.2 S 13 17 7 9 1011.9 1010.9 0.0
23/12:00am 20.7 18.5 8.0 44 6.7 SSE 9 11 5 6 1012.0 1011.0 0.0
 
Date/Time
EDT
Temp
°C
App
Temp
°C
Dew
Point
Rel
Hum
%
Delta-T
°C
Wind Press
QNH
hPa
Press
MSL
hPa
Rain
since 9 am
mm
Dir
 
Spd
km/h
Gust
km/h
Spd
kts
Gust
kts
22/11:30pm 21.7 20.5 7.9 41 7.3 SW 4 7 2 4 1012.4 1011.4 0.0
22/11:00pm 22.8 20.3 6.6 35 8.4 S 9 13 5 7 1012.5 1011.5 0.0
22/10:30pm 22.8 20.1 5.7 33 8.7 S 9 15 5 8 1012.6 1011.6 0.0
22/10:00pm 24.7 21.1 5.0 28 10.1 S 13 15 7 8 1012.3 1011.3 0.0
22/09:30pm 26.6 23.5 5.5 26 11.0 SSE 11 13 6 7 1012.1 1011.1 0.0
22/09:00pm 25.8 22.7 5.4 27 10.6 S 11 13 6 7 1011.7 1010.7 0.0
22/08:30pm 26.9 23.6 4.6 24 11.5 S 11 13 6 7 1011.7 1010.7 0.0
22/08:00pm 29.1 25.4 4.6 21 12.8 S 13 17 7 9 1011.6 1010.6 0.0
22/07:30pm 30.8 27.1 4.5 19 13.8 SSW 13 17 7 9 1011.1 1010.0 0.0
22/07:00pm 33.1 29.8 4.8 17 15.1 SW 11 15 6 8 1010.7 1009.7 0.0
22/06:30pm 33.2 29.2 4.9 17 15.2 WSW 15 19 8 10 1010.5 1009.5 0.0
22/06:00pm 33.8 29.4 4.5 16 15.7 SW 17 28 9 15 1010.0 1009.0 0.0
22/05:30pm 33.8 29.4 4.5 16 15.6 S 17 24 9 13 1010.0 1009.0 0.0
22/05:00pm 33.2 28.7 4.0 16 15.4 SSW 17 26 9 14 1010.3 1009.3 0.0
22/04:30pm 34.6 28.8 4.2 15 16.2 WSW 24 32 13 17 1010.7 1009.7 0.0
22/04:00pm 33.8 27.8 3.6 15 15.9 WSW 24 33 13 18 1010.8 1009.8 0.0
22/03:30pm 34.6 28.6 3.2 14 16.5 W 24 35 13 19 1011.2 1010.1 0.0
22/03:00pm 34.7 28.5 4.3 15 16.3 WNW 26 44 14 24 1011.2 1010.1 0.0
22/02:30pm 35.1 30.3 4.6 15 16.4 NW 19 32 10 17 1011.5 1010.5 0.0
22/02:00pm 34.8 30.7 6.2 17 15.8 WNW 17 28 9 15 1011.6 1010.6 0.0
22/01:30pm 33.2 29.0 5.7 18 14.9 NNE 17 26 9 14 1011.8 1010.8 0.0
22/01:00pm 33.1 29.0 6.4 19 14.6 NW 17 24 9 13 1012.3 1011.3 0.0
22/12:30pm 31.7 28.5 6.7 21 13.7 N 13 24 7 13 1012.4 1011.4 0.0
22/12:00pm 31.5 28.7 8.5 24 12.9 N 13 28 7 15 1012.6 1011.6 0.0
22/11:30am 31.0 27.3 8.1 24 12.8 N 17 24 9 13 1013.0 1012.0 0.0
22/11:00am 30.5 28.0 8.3 25 12.4 NNW 11 20 6 11 1013.2 1012.2 0.0
22/10:30am 29.2 26.6 9.3 29 11.2 NNE 13 19 7 10 1013.3 1012.3 0.0
22/10:00am 28.3 25.0 9.6 31 10.5 NE 17 28 9 15 1013.5 1012.5 0.0
22/09:30am 27.0 23.8 11.1 37 9.1 NE 19 26 10 14 1013.6 1012.6 0.0
22/09:00am 25.6 23.3 11.7 42 8.0 ENE 15 20 8 11 1013.6 1012.6 0.0
22/08:30am 23.6 21.7 10.6 44 7.3 E 11 17 6 9 1013.7 1012.7 0.0
22/08:00am 21.7 20.8 10.5 49 6.2 NE 6 9 3 5 1013.5 1012.5 0.0
22/07:30am 17.8 17.9 11.4 66 3.5 SW 2 7 1 4 1013.3 1012.3 0.0
22/07:00am 14.6 13.1 10.6 77 2.1 S 9 9 5 5 1012.9 1011.9 0.0
22/06:30am 12.0 10.8 9.6 85 1.2 SSW 6 7 3 4 1012.6 1011.6 0.0
22/06:00am 11.6 11.3 8.6 82 1.5 CALM 0 0 0 0 1012.3 1011.3 0.0
22/05:30am 12.6 10.9 9.8 83 1.5 S 9 9 5 5 1012.4 1011.4 0.0
22/05:00am 11.7 9.9 9.3 85 1.2 S 9 9 5 5 1012.4 1011.4 0.0

Other Formats:

Comma delimited format used in spreadsheet applications
http://www.bom.gov.au/fwo/IDN60801/IDN60801.95722.axf

JavaScript Object Notation format (JSON) in row-major order
http://www.bom.gov.au/fwo/IDN60801/IDN60801.95722.json